Time;durP1;ratioP1;P1;durP2;ratioP2;P2;SDS_P1;SDS_P2;PMS_P1;PMS_P2;Temp;Humidity;BMP_temperature;BMP_pressure;BME280_temperature;BME280_humidity;BME280_pressure;Samples;Min_cycle;Max_cycle;Signal;HPM_P1;HPM_P2
2022/10/23 00:01:25;;;;;;;;;;;;;;;8.23;88.09;99299.11;1679813;85;20153;-81
2022/10/23 00:03:57;;;;;;;;;;;;;;;8.23;88.33;99308.28;1679518;84;20623;-82
2022/10/23 00:06:24;;;;;;;;;;;;;;;8.22;88.52;99301.31;1679811;84;20212;-81
2022/10/23 00:08:50;;;;;;;;;;;;;;;8.19;88.83;99306.20;1680063;85;21126;-81
2022/10/23 00:11:20;;;;;;;;;;;;;;;8.17;89.07;99297.07;1679782;84;20205;-82
2022/10/23 00:13:47;;;;;;;;;;;;;;;8.15;89.43;99296.69;1679884;84;20212;-81
2022/10/23 00:16:15;;;;;;;;;;;;;;;8.11;89.71;99307.72;1679790;84;20518;-82
2022/10/23 00:18:44;;;;;;;;;;;;;;;8.09;89.93;99297.73;1679779;85;20157;-82
2022/10/23 00:21:13;;;;;;;;;;;;;;;8.08;90.11;99297.78;1679851;85;21561;-83
2022/10/23 00:23:40;;;;;;;;;;;;;;;8.09;90.43;99297.73;1679770;84;20211;-80
2022/10/23 00:26:07;;;;;;;;;;;;;;;8.09;90.78;99292.95;1680033;84;20247;-81
2022/10/23 00:28:34;;;;;;;;;;;;;;;8.05;90.97;99296.08;1679846;85;20195;-82
2022/10/23 00:31:02;;;;;;;;;;;;;;;8.02;91.15;99294.89;1673432;84;20303;-82
2022/10/23 00:33:29;;;;;;;;;;;;;;;8.03;91.32;99287.42;1667748;84;21085;-83
2022/10/23 00:35:55;;;;;;;;;;;;;;;8.03;91.50;99291.34;1667634;86;20190;-82
2022/10/23 00:38:21;;;;;;;;;;;;;;;8.03;91.78;99288.73;1667682;84;20508;-81
2022/10/23 00:40:48;;;;;;;;;;;;;;;8.01;91.87;99287.91;1667749;86;20204;-82
2022/10/23 00:43:23;;;;;;;;;;;;;;;8.03;92.09;99290.03;1667658;86;20256;-82
2022/10/23 00:45:49;;;;;;;;;;;;;;;8.02;92.22;99281.79;1667604;86;21183;-81
2022/10/23 00:48:15;;;;;;;;;;;;;;;8.00;92.29;99282.25;1667782;84;20208;-82
2022/10/23 00:50:44;;;;;;;;;;;;;;;8.00;92.56;99279.64;1667304;86;20957;-83
2022/10/23 00:53:11;;;;;;;;;;;;;;;8.01;92.67;99280.05;1669086;85;20561;-83
2022/10/23 00:55:38;;;;;;;;;;;;;;;8.04;92.68;99270.80;1667640;85;20318;-83
2022/10/23 00:58:05;;;;;;;;;;;;;;;8.07;92.62;99272.03;1667641;86;20703;-84
2022/10/23 01:00:46;;;;;;;;;;;;;;;8.09;92.75;99274.16;1667635;86;20219;-82
2022/10/23 01:03:14;;;;;;;;;;;;;;;8.09;92.84;99267.60;1668083;86;20150;-81
2022/10/23 01:05:49;;;;;;;;;;;;;;;8.12;92.93;99260.97;1667580;86;20559;-83
2022/10/23 01:08:23;;;;;;;;;;;;;;;8.14;92.89;99263.55;1668177;85;20387;-82
2022/10/23 01:10:59;;;;;;;;;;;;;;;8.15;93.10;99256.95;1667841;84;21804;-82
2022/10/23 01:13:33;;;;;;;;;;;;;;;8.14;93.17;99248.67;1632122;87;20506;-81
2022/10/23 01:16:07;;;;;;;;;;;;;;;8.16;93.27;99249.48;1622759;87;20216;-83
2022/10/23 01:18:45;;;;;;;;;;;;;;;8.18;93.25;99248.98;1660485;85;20513;-82
2022/10/23 01:21:21;;;;;;;;;;;;;;;8.21;93.25;99245.88;1660294;86;20185;-84
2022/10/23 01:23:56;;;;;;;;;;;;;;;8.20;93.24;99242.38;1633570;86;21108;-85
2022/10/23 01:26:50;;;;;;;;;;;;;;;8.22;93.30;99237.98;1659943;86;20357;-82
2022/10/23 01:29:24;;;;;;;;;;;;;;;8.23;93.48;99233.59;1660484;86;20173;-84
2022/10/23 01:32:09;;;;;;;;;;;;;;;8.22;93.83;99235.79;1667440;86;20177;-81
2022/10/23 01:34:43;;;;;;;;;;;;;;;8.21;93.91;99236.25;1670019;84;20215;-83
2022/10/23 01:37:11;;;;;;;;;;;;;;;8.21;94.12;99224.92;1670181;86;21116;-83
2022/10/23 01:39:42;;;;;;;;;;;;;;;8.21;94.20;99229.70;1670380;86;20201;-83
2022/10/23 01:42:11;;;;;;;;;;;;;;;8.22;94.18;99230.12;1670288;86;20205;-82
2022/10/23 01:44:43;;;;;;;;;;;;;;;8.22;94.28;99227.50;1670138;86;20193;-80
2022/10/23 01:47:10;;;;;;;;;;;;;;;8.21;94.37;99228.84;1670135;84;20208;-84
2022/10/23 01:49:39;;;;;;;;;;;;;;;8.23;94.39;99225.72;1644717;86;21797;-84
2022/10/23 01:52:07;;;;;;;;;;;;;;;8.21;94.43;99222.30;1646514;87;20807;-82
2022/10/23 01:54:36;;;;;;;;;;;;;;;8.19;94.68;99218.41;1646572;86;20202;-82
2022/10/23 01:57:02;;;;;;;;;;;;;;;8.18;94.78;99224.08;1670471;86;20185;-84
2022/10/23 01:59:36;;;;;;;;;;;;;;;8.18;94.88;99221.46;1670461;84;20155;-83
2022/10/23 02:02:04;;;;;;;;;;;;;;;8.19;94.99;99219.26;1670385;84;21182;-83
2022/10/23 02:04:34;;;;;;;;;;;;;;;8.16;95.34;99225.89;1670190;84;20208;-81
2022/10/23 02:07:00;;;;;;;;;;;;;;;8.12;95.59;99218.16;1670295;85;20244;-84
2022/10/23 02:09:27;;;;;;;;;;;;;;;8.12;95.69;99225.59;1670381;84;20483;-86
2022/10/23 02:12:03;;;;;;;;;;;;;;;8.14;95.67;99223.78;1670195;84;20224;-85
2022/10/23 02:14:55;;;;;;;;;;;;;;;8.15;95.78;99224.20;1670220;86;21157;-84
2022/10/23 02:17:43;;;;;;;;;;;;;;;8.15;95.93;99222.89;1670400;86;20515;-84
2022/10/23 02:20:22;;;;;;;;;;;;;;;8.15;96.05;99222.89;1670139;84;20511;-84
2022/10/23 02:23:00;;;;;;;;;;;;;;;8.13;96.27;99220.73;1670634;84;20196;-82
2022/10/23 02:25:35;;;;;;;;;;;;;;;8.10;96.75;99227.41;1670051;86;21192;-84
2022/10/23 02:28:05;;;;;;;;;;;;;;;8.05;97.16;99226.65;1670413;84;21142;-84
2022/10/23 02:30:34;;;;;;;;;;;;;;;7.99;97.57;99229.01;1637997;85;20283;-82
2022/10/23 02:33:02;;;;;;;;;;;;;;;7.95;98.08;99231.75;1634874;86;20207;-83
2022/10/23 02:35:29;;;;;;;;;;;;;;;7.92;98.30;99228.78;1613605;87;20194;-83
2022/10/23 02:37:58;;;;;;;;;;;;;;;7.91;98.64;99225.75;1635446;87;20429;-82
2022/10/23 02:40:35;;;;;;;;;;;;;;;7.91;98.87;99219.66;1635791;86;21165;-83
2022/10/23 02:43:07;;;;;;;;;;;;;;;7.92;99.11;99217.00;1635884;87;20300;-83
2022/10/23 02:45:44;;;;;;;;;;;;;;;7.91;99.49;99220.97;1635621;86;20242;-82
2022/10/23 02:48:20;;;;;;;;;;;;;;;7.89;99.85;99220.16;1612932;86;21008;-84
2022/10/23 02:51:09;;;;;;;;;;;;;;;7.88;100.00;99215.34;1635622;87;20247;-82
2022/10/23 02:53:54;;;;;;;;;;;;;;;7.90;100.00;99212.69;1635963;87;21129;-83
2022/10/23 02:56:24;;;;;;;;;;;;;;;7.92;100.00;99222.70;1635887;86;20197;-83
2022/10/23 02:58:58;;;;;;;;;;;;;;;7.89;100.00;99213.61;1636072;86;20231;-83
2022/10/23 03:01:30;;;;;;;;;;;;;;;7.89;100.00;99217.53;1635778;87;20155;-82
2022/10/23 03:03:57;;;;;;;;;;;;;;;7.88;100.00;99217.12;1635843;86;20234;-83
2022/10/23 03:06:24;;;;;;;;;;;;;;;7.87;100.00;99219.31;1635659;86;21988;-84
2022/10/23 03:08:53;;;;;;;;;;;;;;;7.84;100.00;99215.50;1635685;86;20148;-84
2022/10/23 03:11:20;;;;;;;;;;;;;;;7.85;100.00;99213.27;1635907;87;20206;-82
2022/10/23 03:13:48;;;;;;;;;;;;;;;7.86;100.00;99209.77;1613471;87;20203;-84
2022/10/23 03:16:15;;;;;;;;;;;;;;;7.87;100.00;99213.65;1635962;86;20212;-83
2022/10/23 03:18:43;;;;;;;;;;;;;;;7.88;100.00;99211.88;1635182;87;21189;-84
2022/10/23 03:21:11;;;;;;;;;;;;;;;7.91;100.00;99211.80;1635510;86;20439;-82
2022/10/23 03:23:39;;;;;;;;;;;;;;;7.93;100.00;99209.98;1635363;87;20676;-82
2022/10/23 03:26:05;;;;;;;;;;;;;;;7.94;100.00;99219.58;1635954;87;20236;-84
2022/10/23 03:28:34;;;;;;;;;;;;;;;7.93;100.00;99213.45;1635424;87;21006;-84
2022/10/23 03:31:02;;;;;;;;;;;;;;;7.94;100.00;99210.41;1637460;87;21871;-82
2022/10/23 03:33:29;;;;;;;;;;;;;;;7.95;100.00;99209.48;1649233;85;20213;-84
2022/10/23 03:35:58;;;;;;;;;;;;;;;7.96;100.00;99206.82;1649256;85;20369;-83
2022/10/23 03:38:24;;;;;;;;;;;;;;;7.97;100.00;99209.86;1649547;85;20835;-82
2022/10/23 03:40:50;;;;;;;;;;;;;;;7.98;100.00;99204.16;1649268;85;20262;-82
2022/10/23 03:43:17;;;;;;;;;;;;;;;7.99;100.00;99202.81;1650803;87;21148;-86
2022/10/23 03:45:43;;;;;;;;;;;;;;;8.02;100.00;99199.25;1672652;84;20158;-84
2022/10/23 03:48:10;;;;;;;;;;;;;;;8.05;100.00;99201.76;1672857;84;20192;-81
2022/10/23 03:50:37;;;;;;;;;;;;;;;8.05;100.00;99200.45;1672878;85;20455;-82
2022/10/23 03:53:06;;;;;;;;;;;;;;;8.07;100.00;99202.59;1672993;84;20251;-82
2022/10/23 03:55:33;;;;;;;;;;;;;;;8.08;100.00;99204.76;1672904;84;21148;-84
2022/10/23 03:58:00;;;;;;;;;;;;;;;8.08;100.00;99204.30;1672812;85;20204;-83
2022/10/23 04:00:27;;;;;;;;;;;;;;;8.09;100.00;99199.94;1672878;85;20220;-83
2022/10/23 04:02:54;;;;;;;;;;;;;;;8.09;100.00;99196.85;1672756;85;20444;-83
2022/10/23 04:05:20;;;;;;;;;;;;;;;8.10;100.00;99193.77;1672818;85;20236;-83
2022/10/23 04:07:53;;;;;;;;;;;;;;;8.12;100.00;99195.45;1643966;86;20226;-83
2022/10/23 04:10:21;;;;;;;;;;;;;;;8.13;100.00;99194.53;1644123;86;20350;-84
2022/10/23 04:12:47;;;;;;;;;;;;;;;8.12;100.00;99190.22;1650667;87;20175;-83
2022/10/23 04:15:15;;;;;;;;;;;;;;;8.14;100.00;99192.33;1672757;84;20208;-81
2022/10/23 04:17:44;;;;;;;;;;;;;;;8.15;100.00;99191.44;1672917;85;20208;-82
2022/10/23 04:20:11;;;;;;;;;;;;;;;8.16;100.00;99190.52;1673180;85;21033;-82
2022/10/23 04:22:39;;;;;;;;;;;;;;;8.17;100.00;99196.17;1672882;85;20243;-82
2022/10/23 04:25:05;;;;;;;;;;;;;;;8.19;100.00;99195.67;1673006;84;20231;-83
2022/10/23 04:27:33;;;;;;;;;;;;;;;8.19;100.00;99197.44;1673045;84;20212;-81
2022/10/23 04:30:02;;;;;;;;;;;;;;;8.19;100.00;99196.98;1673046;84;20213;-81
2022/10/23 04:32:30;;;;;;;;;;;;;;;8.21;100.00;99189.54;1671196;85;21592;-83
2022/10/23 04:34:57;;;;;;;;;;;;;;;8.19;100.00;99194.36;1670135;84;20492;-82
2022/10/23 04:37:23;;;;;;;;;;;;;;;8.21;100.00;99190.84;1670406;84;20157;-81
2022/10/23 04:39:50;;;;;;;;;;;;;;;8.18;100.00;99186.08;1670205;86;20223;-83
2022/10/23 04:42:17;;;;;;;;;;;;;;;8.20;100.00;99193.89;1670113;86;20208;-83
2022/10/23 04:44:45;;;;;;;;;;;;;;;8.21;100.00;99190.84;1670307;86;21127;-83
2022/10/23 04:47:12;;;;;;;;;;;;;;;8.19;100.00;99186.50;1670363;86;20207;-84
2022/10/23 04:49:40;;;;;;;;;;;;;;;8.20;100.00;99187.34;1644289;86;20247;-84
2022/10/23 04:52:14;;;;;;;;;;;;;;;8.22;100.00;99193.86;1645361;87;20482;-83
2022/10/23 04:54:45;;;;;;;;;;;;;;;8.24;100.00;99190.73;1643679;86;20218;-84
2022/10/23 04:57:22;;;;;;;;;;;;;;;8.23;100.00;99183.79;1646394;85;21099;-83
2022/10/23 05:00:07;;;;;;;;;;;;;;;8.23;100.00;99191.65;1646132;85;20478;-82
2022/10/23 05:02:37;;;;;;;;;;;;;;;8.26;100.00;99191.56;1646071;87;20208;-82
2022/10/23 05:05:05;;;;;;;;;;;;;;;8.27;100.00;99190.64;1646252;87;20219;-81
2022/10/23 05:07:51;;;;;;;;;;;;;;;8.28;100.00;99187.97;1644991;87;20218;-83
2022/10/23 05:10:23;;;;;;;;;;;;;;;8.31;100.00;99193.13;1667931;86;21194;-83
2022/10/23 05:12:51;;;;;;;;;;;;;;;8.32;100.00;99190.05;1643813;85;20255;-83
2022/10/23 05:15:18;;;;;;;;;;;;;;;8.31;100.00;99191.82;1646502;87;20214;-84
2022/10/23 05:17:45;;;;;;;;;;;;;;;8.31;100.00;99193.59;1646138;86;21130;-85
2022/10/23 05:20:17;;;;;;;;;;;;;;;8.31;100.00;99191.82;1646385;87;20218;-85
2022/10/23 05:22:43;;;;;;;;;;;;;;;8.31;100.00;99194.91;1669874;84;21158;-84
2022/10/23 05:25:11;;;;;;;;;;;;;;;8.33;100.00;99201.80;1669841;84;20531;-84
2022/10/23 05:27:39;;;;;;;;;;;;;;;8.34;100.00;99200.05;1670019;84;20201;-84
2022/10/23 05:30:09;;;;;;;;;;;;;;;8.32;100.00;99200.10;1644013;86;20611;-84
2022/10/23 05:32:37;;;;;;;;;;;;;;;8.33;100.00;99200.95;1646117;85;20187;-84
2022/10/23 05:35:08;;;;;;;;;;;;;;;8.33;100.00;99198.33;1669642;86;21161;-84
2022/10/23 05:37:37;;;;;;;;;;;;;;;8.33;100.00;99198.33;1670027;84;20201;-83
2022/10/23 05:40:06;;;;;;;;;;;;;;;8.33;100.00;99187.84;1669299;86;20201;-84
2022/10/23 05:42:34;;;;;;;;;;;;;;;8.35;100.00;99193.89;1644072;85;20240;-81
2022/10/23 05:45:01;;;;;;;;;;;;;;;8.35;100.00;99189.95;1646441;85;20510;-82
2022/10/23 05:47:48;;;;;;;;;;;;;;;8.37;100.00;99189.02;1644650;86;21180;-82
2022/10/23 05:50:18;;;;;;;;;;;;;;;8.40;100.00;99191.98;1633878;86;20400;-82
2022/10/23 05:53:03;;;;;;;;;;;;;;;8.41;100.00;99191.09;1670456;86;20200;-80
2022/10/23 05:55:47;;;;;;;;;;;;;;;8.42;100.00;99194.09;1670443;84;20244;-81
2022/10/23 05:58:18;;;;;;;;;;;;;;;8.43;100.00;99194.55;1665430;84;21099;-82
2022/10/23 06:00:50;;;;;;;;;;;;;;;8.46;100.00;99193.61;1663531;84;21733;-82
2022/10/23 06:03:18;;;;;;;;;;;;;;;8.47;100.00;99194.88;1644009;87;20272;-82
2022/10/23 06:05:51;;;;;;;;;;;;;;;8.49;100.00;99196.98;1646879;85;20210;-82
2022/10/23 06:08:23;;;;;;;;;;;;;;;8.50;100.00;99197.38;1646413;87;20194;-84
2022/10/23 06:10:50;;;;;;;;;;;;;;;8.52;100.00;99199.52;1670163;86;20979;-82
2022/10/23 06:13:18;;;;;;;;;;;;;;;8.52;100.00;99202.14;1670062;84;21170;-83
2022/10/23 06:15:44;;;;;;;;;;;;;;;8.52;100.00;99204.77;1670095;84;20444;-84
2022/10/23 06:18:21;;;;;;;;;;;;;;;8.53;100.00;99195.97;1644433;85;20255;-84
2022/10/23 06:20:50;;;;;;;;;;;;;;;8.53;100.00;99201.22;1645398;85;21006;-83
2022/10/23 06:23:18;;;;;;;;;;;;;;;8.58;100.00;99200.23;1645310;85;20208;-86
2022/10/23 06:25:59;;;;;;;;;;;;;;;8.61;100.00;99186.99;1644678;87;21210;-84
2022/10/23 06:28:27;;;;;;;;;;;;;;;8.64;100.00;99194.77;1645682;87;21004;-82
2022/10/23 06:30:53;;;;;;;;;;;;;;;8.67;100.00;99195.52;1646524;86;20206;-84
2022/10/23 06:33:20;;;;;;;;;;;;;;;8.70;100.00;99202.45;1646642;85;20231;-84
2022/10/23 06:35:47;;;;;;;;;;;;;;;8.73;100.00;99197.12;1670259;84;20212;-83
2022/10/23 06:38:14;;;;;;;;;;;;;;;8.76;100.00;99198.34;1670430;84;21125;-85
2022/10/23 06:40:44;;;;;;;;;;;;;;;8.78;100.00;99201.76;1644147;87;20239;-84
2022/10/23 06:43:12;;;;;;;;;;;;;;;8.79;100.00;99202.14;1646419;85;20206;-82
2022/10/23 06:45:43;;;;;;;;;;;;;;;8.81;100.00;99201.66;1634753;86;20180;-83
2022/10/23 06:48:16;;;;;;;;;;;;;;;8.82;100.00;99203.36;1670276;84;20237;-83
2022/10/23 06:50:44;;;;;;;;;;;;;;;8.83;100.00;99201.16;1662121;86;21953;-83
2022/10/23 06:53:12;;;;;;;;;;;;;;;8.84;100.00;99199.38;1670195;86;20224;-84
2022/10/23 06:55:40;;;;;;;;;;;;;;;8.86;100.00;99197.55;1644170;86;20247;-84
2022/10/23 06:58:09;;;;;;;;;;;;;;;8.85;100.00;99188.84;1646344;87;20198;-83
2022/10/23 07:00:37;;;;;;;;;;;;;;;8.89;100.00;99193.09;1646162;85;20234;-82
2022/10/23 07:03:07;;;;;;;;;;;;;;;8.92;100.00;99187.72;1646716;87;21123;-82
2022/10/23 07:05:34;;;;;;;;;;;;;;;8.96;100.00;99195.49;1646577;87;20159;-83
2022/10/23 07:08:03;;;;;;;;;;;;;;;8.99;100.00;99203.27;1669998;84;20229;-82
2022/10/23 07:10:31;;;;;;;;;;;;;;;9.02;100.00;99205.33;1644114;85;20223;-81
2022/10/23 07:13:02;;;;;;;;;;;;;;;9.04;100.00;99205.28;1617591;87;20267;-83
2022/10/23 07:15:34;;;;;;;;;;;;;;;9.04;100.00;99210.06;1670118;84;21585;-83
2022/10/23 07:18:01;;;;;;;;;;;;;;;9.05;100.00;99213.57;1670101;84;20212;-80
2022/10/23 07:20:29;;;;;;;;;;;;;;;9.05;100.00;99214.88;1644425;86;20227;-83
2022/10/23 07:22:55;;;;;;;;;;;;;;;9.06;100.00;99213.95;1646163;87;20305;-81
2022/10/23 07:25:30;;;;;;;;;;;;;;;9.07;100.00;99210.44;1645789;85;20238;-85
2022/10/23 07:27:58;;;;;;;;;;;;;;;9.07;100.00;99215.69;1646363;87;21225;-84
2022/10/23 07:30:24;;;;;;;;;;;;;;;9.06;100.00;99209.59;1670239;85;20211;-85
2022/10/23 07:32:53;;;;;;;;;;;;;;;9.06;100.00;99207.39;1666669;84;20196;-83
2022/10/23 07:35:34;;;;;;;;;;;;;;;9.09;100.00;99213.86;1634080;85;20486;-84
2022/10/23 07:38:05;;;;;;;;;;;;;;;9.11;100.00;99203.73;1659098;85;20209;-83
2022/10/23 07:40:33;;;;;;;;;;;;;;;9.11;100.00;99208.09;1660466;86;21130;-83
2022/10/23 07:43:00;;;;;;;;;;;;;;;9.12;100.00;99199.33;1660117;85;20245;-84
2022/10/23 07:45:26;;;;;;;;;;;;;;;9.12;100.00;99199.33;1660303;85;20271;-84
2022/10/23 07:47:53;;;;;;;;;;;;;;;9.14;100.00;99196.19;1660385;85;20241;-84
2022/10/23 07:50:21;;;;;;;;;;;;;;;9.17;100.00;99196.09;1660170;85;20205;-83
2022/10/23 07:52:48;;;;;;;;;;;;;;;9.20;100.00;99202.55;1660196;85;22408;-83
2022/10/23 07:55:16;;;;;;;;;;;;;;;9.24;100.00;99194.96;1660187;85;20208;-82
2022/10/23 07:57:44;;;;;;;;;;;;;;;9.23;100.00;99191.95;1659206;86;20150;-84
2022/10/23 08:00:24;;;;;;;;;;;;;;;9.24;100.00;99198.90;1658570;86;20470;-84
2022/10/23 08:02:54;;;;;;;;;;;;;;;9.25;100.00;99192.75;1660271;85;20244;-85
2022/10/23 08:05:20;;;;;;;;;;;;;;;9.28;100.00;99195.27;1660180;86;21165;-83
2022/10/23 08:07:48;;;;;;;;;;;;;;;9.31;100.00;99200.86;1659693;86;20225;-83
2022/10/23 08:10:17;;;;;;;;;;;;;;;9.34;100.00;99197.28;1660229;86;20205;-84
2022/10/23 08:12:45;;;;;;;;;;;;;;;9.37;100.00;99199.81;1660344;86;20213;-84
2022/10/23 08:15:13;;;;;;;;;;;;;;;9.40;100.00;99199.71;1660412;85;20266;-82
2022/10/23 08:17:42;;;;;;;;;;;;;;;9.44;100.00;99206.55;1659084;86;21115;-84
2022/10/23 08:20:13;;;;;;;;;;;;;;;9.46;100.00;99207.34;1660053;86;20204;-85
2022/10/23 08:22:43;;;;;;;;;;;;;;;9.47;100.00;99203.83;1660310;85;20332;-84
2022/10/23 08:25:09;;;;;;;;;;;;;;;9.49;100.00;99203.31;1660325;86;20303;-83
2022/10/23 08:27:36;;;;;;;;;;;;;;;9.52;100.00;99204.52;1660342;85;20510;-85
2022/10/23 08:30:03;;;;;;;;;;;;;;;9.56;100.00;99204.80;1660035;86;21197;-84
2022/10/23 08:32:30;;;;;;;;;;;;;;;9.60;100.00;99211.67;1660339;84;20216;-85
2022/10/23 08:34:58;;;;;;;;;;;;;;;9.62;100.00;99214.25;1669283;86;20476;-83
2022/10/23 08:37:26;;;;;;;;;;;;;;;9.65;100.00;99210.20;1670054;86;20224;-84
2022/10/23 08:39:54;;;;;;;;;;;;;;;9.66;100.00;99211.44;1670601;86;20216;-82
2022/10/23 08:42:32;;;;;;;;;;;;;;;9.69;100.00;99218.36;1644244;87;21240;-83
2022/10/23 08:45:06;;;;;;;;;;;;;;;9.70;100.00;99219.21;1618067;88;20233;-85
2022/10/23 08:47:43;;;;;;;;;;;;;;;9.71;100.00;99221.78;1669852;84;20201;-86
2022/10/23 08:50:15;;;;;;;;;;;;;;;9.75;100.00;99221.22;1665849;84;21060;-82
2022/10/23 08:53:02;;;;;;;;;;;;;;;9.78;100.00;99223.27;1661932;84;20196;-84
2022/10/23 08:55:35;;;;;;;;;;;;;;;9.80;100.00;99226.73;1669866;84;21168;-86
2022/10/23 08:58:09;;;;;;;;;;;;;;;9.84;100.00;99231.41;1670004;84;20206;-84
2022/10/23 09:00:36;;;;;;;;;;;;;;;9.86;100.00;99228.27;1669560;85;20240;-84
2022/10/23 09:03:03;;;;;;;;;;;;;;;9.90;100.00;99224.63;1670078;86;20212;-84
2022/10/23 09:05:52;;;;;;;;;;;;;;;9.94;100.00;99234.09;1670405;84;20474;-84
2022/10/23 09:08:43;;;;;;;;;;;;;;;9.99;100.00;99232.63;1669655;84;20221;-84
2022/10/23 09:11:22;;;;;;;;;;;;;;;10.01;100.00;99227.70;1662292;84;20208;-85
2022/10/23 09:14:02;;;;;;;;;;;;;;;10.04;100.00;99228.91;1670198;86;20208;-83
2022/10/23 09:16:48;;;;;;;;;;;;;;;10.09;100.00;99232.69;1670238;85;20677;-84
2022/10/23 09:19:30;;;;;;;;;;;;;;;10.12;100.00;99222.49;1670046;84;20225;-84
2022/10/23 09:21:53;;;;;;;;;;;;;;;10.16;100.00;99222.80;1665079;85;21051;-82
2022/10/23 09:24:22;;;;;;;;;;;;;;;10.18;100.00;99224.91;1670255;84;20637;-83
2022/10/23 09:26:51;;;;;;;;;;;;;;;10.20;100.00;99223.06;1670457;84;20239;-85
2022/10/23 09:29:26;;;;;;;;;;;;;;;10.24;100.00;99228.63;1670072;85;20188;-85
2022/10/23 09:31:54;;;;;;;;;;;;;;;10.28;100.00;99230.20;1670240;86;20236;-85
2022/10/23 09:34:22;;;;;;;;;;;;;;;10.31;100.00;99230.09;1670290;84;21171;-85
2022/10/23 09:36:52;;;;;;;;;;;;;;;10.34;100.00;99228.70;1670121;84;20174;-83
2022/10/23 09:39:27;;;;;;;;;;;;;;;10.38;100.00;99226.34;1669961;86;20220;-84
2022/10/23 09:41:54;;;;;;;;;;;;;;;10.44;100.00;99229.65;1669619;86;20232;-84
2022/10/23 09:44:26;;;;;;;;;;;;;;;10.47;100.00;99230.84;1670416;84;20282;-86
2022/10/23 09:46:56;;;;;;;;;;;;;;;10.51;100.00;99232.47;1670404;85;21229;-84
2022/10/23 09:49:24;;;;;;;;;;;;;;;10.52;100.00;99237.67;1670365;86;20447;-86
2022/10/23 09:52:03;;;;;;;;;;;;;;;10.55;100.00;99226.16;1670386;86;20182;-82
2022/10/23 09:54:33;;;;;;;;;;;;;;;10.59;100.00;99227.73;1670320;84;20224;-87
2022/10/23 09:57:06;;;;;;;;;;;;;;;10.60;100.00;99225.05;1670301;86;20231;-80
2022/10/23 09:59:33;;;;;;;;;;;;;;;10.63;100.00;99225.39;1659921;84;21180;-85
2022/10/23 10:02:02;;;;;;;;;;;;;;;10.65;100.00;99226.19;1670194;84;20248;-85
2022/10/23 10:04:36;;;;;;;;;;;;;;;10.66;100.00;99226.59;1666504;84;20205;-81
2022/10/23 10:07:05;;;;;;;;;;;;;;;10.69;100.00;99233.06;1669765;84;20605;-83
2022/10/23 10:09:31;;;;;;;;;;;;;;;10.70;100.00;99228.17;1670439;86;20216;-84
2022/10/23 10:12:07;;;;;;;;;;;;;;;10.72;100.00;99224.17;1670142;84;21838;-83
2022/10/23 10:14:47;;;;;;;;;;;;;;;10.75;100.00;99222.27;1669408;84;20173;-83
2022/10/23 10:17:33;;;;;;;;;;;;;;;10.78;100.00;99219.52;1670375;86;20200;-86
2022/10/23 10:20:15;;;;;;;;;;;;;;;10.82;100.00;99224.66;1670176;84;20464;-83
2022/10/23 10:22:57;;;;;;;;;;;;;;;10.86;100.00;99224.92;1670469;84;20233;-83
2022/10/23 10:25:39;;;;;;;;;;;;;;;10.87;100.00;99221.38;1670389;84;21092;-81
2022/10/23 10:28:20;;;;;;;;;;;;;;;10.87;100.00;99224.02;1670197;84;20149;-83
2022/10/23 10:30:56;;;;;;;;;;;;;;;10.85;100.00;99212.23;1669583;84;20177;-81
2022/10/23 10:33:35;;;;;;;;;;;;;;;10.84;100.00;99210.97;1667501;84;20200;-85
2022/10/23 10:36:27;;;;;;;;;;;;;;;10.83;100.00;99212.76;1670269;85;20205;-81
2022/10/23 10:38:56;;;;;;;;;;;;;;;10.81;100.00;99209.78;1670087;86;21264;-84
2022/10/23 10:41:44;;;;;;;;;;;;;;;10.79;100.00;99209.84;1670037;86;20245;-81
2022/10/23 10:44:20;;;;;;;;;;;;;;;10.78;100.00;99206.36;1670203;84;20252;-82
2022/10/23 10:47:06;;;;;;;;;;;;;;;10.78;100.00;99216.88;1670088;85;20209;-84
2022/10/23 10:49:51;;;;;;;;;;;;;;;10.78;100.00;99213.41;1641213;87;20533;-85
2022/10/23 10:52:50;;;;;;;;;;;;;;;10.80;100.00;99214.66;1668183;84;22782;-84
2022/10/23 10:55:25;;;;;;;;;;;;;;;10.77;100.00;99211.21;1670017;84;20162;-84
2022/10/23 10:57:58;;;;;;;;;;;;;;;10.78;100.00;99214.25;1670347;86;20232;-82
2022/10/23 11:00:25;;;;;;;;;;;;;;;10.80;100.00;99215.98;1669989;86;20511;-84
2022/10/23 11:03:01;;;;;;;;;;;;;;;10.81;100.00;99215.05;1670096;86;20272;-85
2022/10/23 11:05:32;;;;;;;;;;;;;;;10.83;100.00;99214.55;1660162;86;21830;-83
2022/10/23 11:08:07;;;;;;;;;;;;;;;10.84;100.00;99218.88;1670277;84;20245;-84
2022/10/23 11:10:34;;;;;;;;;;;;;;;10.87;100.00;99220.06;1669881;86;20229;-83
2022/10/23 11:13:02;;;;;;;;;;;;;;;10.90;100.00;99214.69;1670231;84;20201;-83
2022/10/23 11:15:38;;;;;;;;;;;;;;;10.92;100.00;99215.47;1670223;86;20176;-83
2022/10/23 11:18:07;;;;;;;;;;;;;;;10.94;100.00;99206.61;1670359;84;21167;-82
2022/10/23 11:20:53;;;;;;;;;;;;;;;11.01;100.00;99206.33;1669928;86;20244;-82
2022/10/23 11:23:41;;;;;;;;;;;;;;;11.06;100.00;99207.00;1670168;86;20232;-84
2022/10/23 11:26:35;;;;;;;;;;;;;;;11.13;100.00;99213.27;1669967;86;20197;-82
2022/10/23 11:29:11;;;;;;;;;;;;;;;11.24;100.00;99213.28;1670384;84;20244;-82
2022/10/23 11:31:44;;;;;;;;;;;;;;;11.32;100.00;99208.55;1670106;84;21886;-84
2022/10/23 11:34:37;;;;;;;;;;;;;;;11.38;100.00;99216.64;1646337;84;20252;-84
2022/10/23 11:37:04;;;;;;;;;;;;;;;11.41;100.00;99217.83;1670150;86;20280;-84
2022/10/23 11:39:33;;;;;;;;;;;;;;;11.39;100.00;99215.25;1669964;84;20629;-84
2022/10/23 11:42:08;;;;;;;;;;;;;;;11.42;100.00;99216.92;1644363;87;20279;-83
2022/10/23 11:44:45;;;;;;;;;;;;;;;11.45;100.00;99222.91;1646514;87;21183;-85
2022/10/23 11:47:35;;;;;;;;;;;;;;;11.48;100.00;99220.14;1645562;85;20202;-83
2022/10/23 11:50:12;;;;;;;;;;;;;;;11.50;100.00;99218.30;1646445;85;20152;-82
2022/10/23 11:52:53;;;;;;;;;;;;;;;11.57;100.00;99218.04;1646112;85;20209;-86
2022/10/23 11:55:25;;;;;;;;;;;;;;;11.64;100.00;99221.64;1646420;86;20162;-82
2022/10/23 11:58:07;;;;;;;;;;;;;;;11.76;100.00;99220.72;1670168;84;21174;-82
2022/10/23 12:00:39;;;;;;;;;;;;;;;11.88;100.00;99238.17;1670036;86;20196;-84
2022/10/23 12:03:10;;;;;;;;;;;;;;;11.92;100.00;99231.45;1670202;86;20507;-83
2022/10/23 12:05:40;;;;;;;;;;;;;;;11.89;100.00;99229.32;1669722;86;20929;-83
2022/10/23 12:08:21;;;;;;;;;;;;;;;11.90;100.00;99237.63;1670264;86;20204;-83
2022/10/23 12:10:49;;;;;;;;;;;;;;;11.92;100.00;99234.09;1669760;84;21147;-83
2022/10/23 12:13:39;;;;;;;;;;;;;;;11.97;100.00;99235.61;1670174;86;20233;-79
2022/10/23 12:16:06;;;;;;;;;;;;;;;12.04;100.00;99237.52;1670365;84;20153;-86
2022/10/23 12:18:32;;;;;;;;;;;;;;;12.11;100.00;99238.94;1669902;84;20230;-86
2022/10/23 12:21:03;;;;;;;;;;;;;;;12.16;100.00;99238.27;1670063;84;20208;-83
2022/10/23 12:23:36;;;;;;;;;;;;;;;12.22;100.00;99243.27;1670081;84;22298;-86
2022/10/23 12:26:15;;;;;;;;;;;;;;;12.28;100.00;99245.23;1669962;86;20534;-81
2022/10/23 12:28:45;;;;;;;;;;;;;;;12.29;100.00;99245.61;1669850;86;20157;-85
2022/10/23 12:31:25;;;;;;;;;;;;;;;12.28;100.00;99241.27;1670001;86;20224;-84
2022/10/23 12:33:59;;;;;;;;;;;;;;;12.25;100.00;99244.45;1670500;84;20138;-81
2022/10/23 12:36:41;;;;;;;;;;;;;;;12.23;100.00;99253.34;1663055;84;21823;-86
2022/10/23 12:39:27;;;;;;;;;;;;;;;12.22;100.00;99254.27;1660537;85;20437;-83
2022/10/23 12:41:55;;;;;;;;;;;;;;;12.23;100.00;99258.16;1660373;86;20205;-83
2022/10/23 12:44:21;;;;;;;;;;;;;;;12.22;100.00;99257.78;1660118;86;20430;-85
2022/10/23 12:46:49;;;;;;;;;;;;;;;12.22;100.00;99264.38;1660277;86;20492;-85
2022/10/23 12:49:20;;;;;;;;;;;;;;;12.23;100.00;99259.47;1660483;85;21932;-82
2022/10/23 12:52:08;;;;;;;;;;;;;;;12.22;100.00;99272.73;1660190;85;20153;-84
2022/10/23 12:54:37;;;;;;;;;;;;;;;12.19;100.00;99281.66;1660210;86;20201;-84
2022/10/23 12:57:27;;;;;;;;;;;;;;;12.15;99.17;99276.10;1660432;85;20646;-81
2022/10/23 13:00:01;;;;;;;;;;;;;;;12.12;97.78;99278.91;1660605;85;20236;-84
2022/10/23 13:02:29;;;;;;;;;;;;;;;12.11;97.16;99283.77;1660492;85;21830;-83
2022/10/23 13:04:58;;;;;;;;;;;;;;;12.09;96.42;99279.03;1660756;86;20194;-84
2022/10/23 13:07:27;;;;;;;;;;;;;;;12.06;96.23;99287.92;1660306;85;20157;-82
2022/10/23 13:09:57;;;;;;;;;;;;;;;12.03;95.03;99287.20;1660502;85;20145;-83